Time,TemperatureF,DewpointF,PressureIn,WindDirection,WindDirectionDegrees,WindSpeedMPH,WindSpeedGustMPH,Humidity,HourlyPrecipIn,Conditions,Clouds,dailyrainin,SoftwareType,DateUTC
2013-09-17 00:14:00,42.2,38.0,29.71,NE,50,0.0,1.0,86,0.00,,,0.00,weatherlink.com 1.10,2013-09-17 04:14:00,
2013-09-17 00:29:00,41.6,38.0,29.71,NE,50,0.0,0.0,87,0.00,,,0.00,weatherlink.com 1.10,2013-09-17 04:29:00,
2013-09-17 00:44:00,41.2,38.0,29.71,NE,50,0.0,0.0,87,0.00,,,0.00,weatherlink.com 1.10,2013-09-17 04:44:00,
2013-09-17 00:59:00,40.6,37.0,29.71,NE,50,0.0,0.0,87,0.00,,,0.00,weatherlink.com 1.10,2013-09-17 04:59:00,
2013-09-17 01:14:00,39.9,36.0,29.71,NE,50,0.0,0.0,87,0.00,,,0.00,weatherlink.com 1.10,2013-09-17 05:14:00,
2013-09-17 01:29:00,39.2,36.0,29.71,NE,49,0.0,0.0,88,0.00,,,0.00,weatherlink.com 1.10,2013-09-17 05:29:00,
2013-09-17 01:44:00,38.8,36.0,29.71,NE,50,0.0,0.0,88,0.00,,,0.00,weatherlink.com 1.10,2013-09-17 05:44:00,
2013-09-17 01:59:00,38.5,35.0,29.71,NE,50,0.0,1.0,88,0.00,,,0.00,weatherlink.com 1.10,2013-09-17 05:59:00,
2013-09-17 02:14:00,38.0,35.0,29.72,NE,50,0.0,0.0,88,0.00,,,0.00,weatherlink.com 1.10,2013-09-17 06:14:00,
2013-09-17 02:29:00,37.7,35.0,29.72,NE,50,0.0,0.0,88,0.00,,,0.00,weatherlink.com 1.10,2013-09-17 06:29:00,
2013-09-17 02:44:00,37.3,34.0,29.72,NE,50,0.0,0.0,88,0.00,,,0.00,weatherlink.com 1.10,2013-09-17 06:44:00,
2013-09-17 02:59:00,36.9,34.0,29.72,NE,50,0.0,1.0,88,0.00,,,0.00,weatherlink.com 1.10,2013-09-17 06:59:00,
2013-09-17 03:14:00,36.3,33.0,29.71,NE,50,0.0,0.0,88,0.00,,,0.00,weatherlink.com 1.10,2013-09-17 07:14:00,
2013-09-17 03:29:00,36.1,33.0,29.71,NE,50,0.0,0.0,89,0.00,,,0.00,weatherlink.com 1.10,2013-09-17 07:29:00,
2013-09-17 03:44:00,35.4,32.0,29.72,NE,49,0.0,0.0,88,0.00,,,0.00,weatherlink.com 1.10,2013-09-17 07:44:00,
2013-09-17 03:59:00,35.5,33.0,29.72,NE,50,0.0,0.0,89,0.00,,,0.00,weatherlink.com 1.10,2013-09-17 07:59:00,
2013-09-17 04:14:00,34.9,32.0,29.72,NE,50,0.0,0.0,88,0.00,,,0.00,weatherlink.com 1.10,2013-09-17 08:14:00,
2013-09-17 04:29:00,35.1,32.0,29.72,NE,50,0.0,0.0,89,0.00,,,0.00,weatherlink.com 1.10,2013-09-17 08:29:00,
2013-09-17 04:44:00,34.6,32.0,29.72,NE,49,0.0,0.0,89,0.00,,,0.00,weatherlink.com 1.10,2013-09-17 08:44:00,
2013-09-17 04:59:00,33.9,31.0,29.72,NE,50,0.0,0.0,89,0.00,,,0.00,weatherlink.com 1.10,2013-09-17 08:59:00,
2013-09-17 05:14:00,33.9,31.0,29.72,NE,50,0.0,0.0,89,0.00,,,0.00,weatherlink.com 1.10,2013-09-17 09:14:00,
2013-09-17 05:29:00,33.5,31.0,29.72,NE,50,0.0,0.0,89,0.00,,,0.00,weatherlink.com 1.10,2013-09-17 09:29:00,
2013-09-17 05:44:00,33.5,31.0,29.72,NE,50,0.0,1.0,89,0.00,,,0.00,weatherlink.com 1.10,2013-09-17 09:44:00,
2013-09-17 06:00:00,33.9,31.0,29.73,NE,50,0.0,0.0,89,0.00,,,0.00,weatherlink.com 1.10,2013-09-17 10:00:00,
2013-09-17 06:15:00,33.4,31.0,29.72,NE,50,0.0,0.0,89,0.00,,,0.00,weatherlink.com 1.10,2013-09-17 10:15:00,
2013-09-17 06:30:00,33.1,30.0,29.72,NE,49,0.0,0.0,89,0.00,,,0.00,weatherlink.com 1.10,2013-09-17 10:30:00,
2013-09-17 06:45:00,32.8,30.0,29.72,NE,49,0.0,0.0,89,0.00,,,0.00,weatherlink.com 1.10,2013-09-17 10:45:00,
2013-09-17 07:00:00,32.8,30.0,29.72,NE,49,0.0,0.0,89,0.00,,,0.00,weatherlink.com 1.10,2013-09-17 11:00:00,
2013-09-17 07:15:00,32.9,30.0,29.72,NE,49,0.0,1.0,89,0.00,,,0.00,weatherlink.com 1.10,2013-09-17 11:15:00,
2013-09-17 07:30:00,32.6,30.0,29.73,NE,50,0.0,0.0,89,0.00,,,0.00,weatherlink.com 1.10,2013-09-17 11:30:00,
2013-09-17 07:45:00,32.4,30.0,29.73,NE,50,0.0,0.0,89,0.00,,,0.00,weatherlink.com 1.10,2013-09-17 11:45:00,
2013-09-17 08:00:00,33.5,31.0,29.73,NE,50,0.0,0.0,89,0.00,,,0.00,weatherlink.com 1.10,2013-09-17 12:00:00,
2013-09-17 08:15:00,34.4,32.0,29.73,NE,50,0.0,0.0,90,0.00,,,0.00,weatherlink.com 1.10,2013-09-17 12:15:00,
2013-09-17 08:30:00,35.2,33.0,29.73,NE,50,0.0,0.0,90,0.00,,,0.00,weatherlink.com 1.10,2013-09-17 12:30:00,
2013-09-17 08:45:00,37.7,35.0,29.73,NE,50,0.0,0.0,90,0.00,,,0.00,weatherlink.com 1.10,2013-09-17 12:45:00,
2013-09-17 09:00:00,40.4,38.0,29.73,NNE,28,0.0,2.0,90,0.00,,,0.00,weatherlink.com 1.10,2013-09-17 13:00:00,
2013-09-17 09:15:00,42.3,40.0,29.73,South,185,0.0,2.0,90,0.00,,,0.00,weatherlink.com 1.10,2013-09-17 13:15:00,
2013-09-17 09:30:00,44.6,42.0,29.73,ENE,74,2.0,3.0,90,0.00,,,0.00,weatherlink.com 1.10,2013-09-17 13:30:00,
2013-09-17 09:45:00,46.9,44.0,29.73,South,183,0.0,3.0,89,0.00,,,0.00,weatherlink.com 1.10,2013-09-17 13:45:00,
2013-09-17 10:00:00,50.0,45.0,29.73,SSE,164,0.0,5.0,84,0.00,,,0.00,weatherlink.com 1.10,2013-09-17 14:00:00,
2013-09-17 10:15:00,52.8,46.0,29.73,SSW,200,2.0,4.0,77,0.00,,,0.00,weatherlink.com 1.10,2013-09-17 14:15:00,
2013-09-17 10:30:00,54.3,46.0,29.72,South,172,1.0,5.0,74,0.00,,,0.00,weatherlink.com 1.10,2013-09-17 14:30:00,
2013-09-17 10:45:00,56.1,46.0,29.72,SE,137,0.0,6.0,69,0.00,,,0.00,weatherlink.com 1.10,2013-09-17 14:45:00,
2013-09-17 11:00:00,57.3,46.0,29.72,SSW,200,3.0,4.0,67,0.00,,,0.00,weatherlink.com 1.10,2013-09-17 15:00:00,
2013-09-17 11:15:00,58.7,47.0,29.71,SE,136,2.0,3.0,65,0.00,,,0.00,weatherlink.com 1.10,2013-09-17 15:15:00,
2013-09-17 11:30:00,60.0,47.0,29.71,SW,230,4.0,4.0,62,0.00,,,0.00,weatherlink.com 1.10,2013-09-17 15:30:00,
2013-09-17 11:45:00,60.4,46.0,29.70,South,174,2.0,4.0,60,0.00,,,0.00,weatherlink.com 1.10,2013-09-17 15:45:00,
2013-09-17 12:00:00,60.4,45.0,29.70,SSE,160,3.0,7.0,58,0.00,,,0.00,weatherlink.com 1.10,2013-09-17 16:00:00,
2013-09-17 12:15:00,62.4,47.0,29.69,SSW,210,2.0,4.0,57,0.00,,,0.00,weatherlink.com 1.10,2013-09-17 16:15:00,
2013-09-17 12:31:00,62.2,46.0,29.69,SW,215,5.0,5.0,55,0.00,,,0.00,weatherlink.com 1.10,2013-09-17 16:31:00,
2013-09-17 12:46:00,62.3,46.0,29.68,SSE,164,1.0,8.0,56,0.00,,,0.00,weatherlink.com 1.10,2013-09-17 16:46:00,
2013-09-17 13:01:00,62.7,46.0,29.68,WSW,239,3.0,10.0,55,0.00,,,0.00,weatherlink.com 1.10,2013-09-17 17:01:00,
2013-09-17 13:16:00,64.4,47.0,29.67,SE,138,1.0,5.0,53,0.00,,,0.00,weatherlink.com 1.10,2013-09-17 17:16:00,
2013-09-17 13:31:00,66.1,47.0,29.66,NE,44,1.0,4.0,51,0.00,,,0.00,weatherlink.com 1.10,2013-09-17 17:31:00,
2013-09-17 13:46:00,66.1,48.0,29.65,SE,133,2.0,8.0,52,0.00,,,0.00,weatherlink.com 1.10,2013-09-17 17:46:00,
2013-09-17 14:01:00,68.0,47.0,29.65,North,9,4.0,6.0,47,0.00,,,0.00,weatherlink.com 1.10,2013-09-17 18:01:00,
2013-09-17 14:16:00,67.6,47.0,29.64,South,186,2.0,6.0,48,0.00,,,0.00,weatherlink.com 1.10,2013-09-17 18:16:00,
2013-09-17 14:31:00,68.5,46.0,29.63,ESE,122,3.0,6.0,44,0.00,,,0.00,weatherlink.com 1.10,2013-09-17 18:31:00,
2013-09-17 14:46:00,69.3,48.0,29.62,SSW,195,2.0,6.0,47,0.00,,,0.00,weatherlink.com 1.10,2013-09-17 18:46:00,
2013-09-17 15:01:00,69.1,46.0,29.61,NNE,29,1.0,8.0,43,0.00,,,0.00,weatherlink.com 1.10,2013-09-17 19:01:00,
2013-09-17 15:16:00,69.9,47.0,29.61,South,169,1.0,8.0,44,0.00,,,0.00,weatherlink.com 1.10,2013-09-17 19:16:00,
2013-09-17 15:31:00,69.9,46.0,29.61,SSE,149,1.0,5.0,43,0.00,,,0.00,weatherlink.com 1.10,2013-09-17 19:31:00,
2013-09-17 15:46:00,69.9,47.0,29.59,SSE,165,3.0,6.0,44,0.00,,,0.00,weatherlink.com 1.10,2013-09-17 19:46:00,
2013-09-17 16:01:00,70.7,49.0,29.59,SSE,167,0.0,7.0,46,0.00,,,0.00,weatherlink.com 1.10,2013-09-17 20:01:00,
2013-09-17 16:16:00,71.8,50.0,29.59,SE,125,2.0,5.0,46,0.00,,,0.00,weatherlink.com 1.10,2013-09-17 20:16:00,
2013-09-17 16:31:00,72.0,49.0,29.58,NNE,23,1.0,6.0,44,0.00,,,0.00,weatherlink.com 1.10,2013-09-17 20:31:00,
2013-09-17 16:46:00,70.2,49.0,29.57,SSE,151,2.0,5.0,47,0.00,,,0.00,weatherlink.com 1.10,2013-09-17 20:46:00,
2013-09-17 17:01:00,69.6,48.0,29.57,SW,225,3.0,10.0,47,0.00,,,0.00,weatherlink.com 1.10,2013-09-17 21:01:00,
2013-09-17 17:16:00,70.8,48.0,29.57,SSE,167,1.0,9.0,44,0.00,,,0.00,weatherlink.com 1.10,2013-09-17 21:16:00,
2013-09-17 17:31:00,71.2,49.0,29.56,South,191,4.0,6.0,46,0.00,,,0.00,weatherlink.com 1.10,2013-09-17 21:31:00,
2013-09-17 17:46:00,69.5,49.0,29.56,SSE,159,2.0,5.0,48,0.00,,,0.00,weatherlink.com 1.10,2013-09-17 21:46:00,
2013-09-17 18:16:00,69.4,49.0,29.56,South,190,3.0,6.0,49,0.00,,,0.00,weatherlink.com 1.10,2013-09-17 22:16:00,
2013-09-17 18:31:00,68.8,50.0,29.55,South,187,1.0,3.0,52,0.00,,,0.00,weatherlink.com 1.10,2013-09-17 22:31:00,
2013-09-17 18:46:00,67.9,49.0,29.55,South,169,0.0,2.0,52,0.00,,,0.00,weatherlink.com 1.10,2013-09-17 22:46:00,
2013-09-17 19:16:00,66.3,50.0,29.54,South,181,0.0,1.0,56,0.00,,,0.00,weatherlink.com 1.10,2013-09-17 23:16:00,
2013-09-17 19:31:00,62.7,50.0,29.54,South,181,0.0,0.0,63,0.00,,,0.00,weatherlink.com 1.10,2013-09-17 23:31:00,
2013-09-17 19:46:00,59.9,49.0,29.54,South,183,0.0,0.0,68,0.00,,,0.00,weatherlink.com 1.10,2013-09-17 23:46:00,
2013-09-17 20:02:00,58.0,49.0,29.53,South,181,0.0,0.0,73,0.00,,,0.00,weatherlink.com 1.10,2013-09-18 00:02:00,
2013-09-17 20:16:00,56.4,49.0,29.53,South,182,0.0,0.0,76,0.00,,,0.00,weatherlink.com 1.10,2013-09-18 00:16:00,
2013-09-17 20:32:00,55.4,49.0,29.53,South,181,0.0,2.0,79,0.00,,,0.00,weatherlink.com 1.10,2013-09-18 00:32:00,
2013-09-17 20:47:00,55.3,50.0,29.54,ENE,61,0.0,1.0,81,0.00,,,0.00,weatherlink.com 1.10,2013-09-18 00:47:00,
2013-09-17 21:02:00,54.1,49.0,29.54,ENE,60,0.0,0.0,83,0.00,,,0.00,weatherlink.com 1.10,2013-09-18 01:02:00,
2013-09-17 21:32:00,52.2,48.0,29.54,ENE,61,0.0,0.0,85,0.00,,,0.00,weatherlink.com 1.10,2013-09-18 01:32:00,
2013-09-17 21:47:00,51.4,47.0,29.53,ENE,61,0.0,0.0,86,0.00,,,0.00,weatherlink.com 1.10,2013-09-18 01:47:00,
2013-09-17 22:02:00,50.5,47.0,29.53,ENE,61,0.0,0.0,86,0.00,,,0.00,weatherlink.com 1.10,2013-09-18 02:02:00,
2013-09-17 22:17:00,50.0,46.0,29.53,ENE,61,0.0,0.0,86,0.00,,,0.00,weatherlink.com 1.10,2013-09-18 02:17:00,
2013-09-17 22:32:00,49.8,46.0,29.53,ENE,60,0.0,1.0,86,0.00,,,0.00,weatherlink.com 1.10,2013-09-18 02:32:00,
2013-09-17 22:47:00,49.8,46.0,29.53,SSE,150,0.0,1.0,86,0.00,,,0.00,weatherlink.com 1.10,2013-09-18 02:47:00,
2013-09-17 23:02:00,50.2,46.0,29.53,SSE,149,0.0,0.0,84,0.00,,,0.00,weatherlink.com 1.10,2013-09-18 03:02:00,
2013-09-17 23:17:00,50.6,45.0,29.53,SSE,155,0.0,1.0,82,0.00,,,0.00,weatherlink.com 1.10,2013-09-18 03:17:00,
2013-09-17 23:32:00,50.6,45.0,29.53,SSE,155,0.0,1.0,81,0.00,,,0.00,weatherlink.com 1.10,2013-09-18 03:32:00,
2013-09-17 23:47:00,50.4,44.0,29.53,SW,217,0.0,1.0,80,0.00,,,0.00,weatherlink.com 1.10,2013-09-18 03:47:00,